Аэропорт: Ширак. Гюмри

ICAO: UDSG

METAR:
2022-06-26 12:00:00
UDSG 261200Z 09004KT 9999 VCTS BKN036CB OVC040 15/13 Q1011 R02/29//55 TEMPO -TSRA
METAR:
2022-06-26 11:00:00
TAF UDSG 261100Z 2612/2712 04006KT 9999 SCT050 TEMPO 2612/2620 VRB16KT -TSRA BKN030CB